Time;durP1;ratioP1;P1;durP2;ratioP2;P2;SDS_P1;SDS_P2;PMS_P1;PMS_P2;Temp;Humidity;BMP_temperature;BMP_pressure;BME280_temperature;BME280_humidity;BME280_pressure;Samples;Min_cycle;Max_cycle;Signal;HPM_P1;HPM_P2
2023/11/18 00:01:19;;;;;;;;;;;;;;;9.42;100.00;98463.63;4982713;28;19925;-71
2023/11/18 00:03:45;;;;;;;;;;;;;;;9.40;100.00;98475.13;4994431;28;19968;-71
2023/11/18 00:06:10;;;;;;;;;;;;;;;9.30;100.00;98474.78;4994138;28;20799;-71
2023/11/18 00:08:35;;;;;;;;;;;;;;;9.30;100.00;98478.41;4994190;28;19924;-71
2023/11/18 00:11:01;;;;;;;;;;;;;;;9.27;100.00;98476.31;4992119;28;19917;-71
2023/11/18 00:13:26;;;;;;;;;;;;;;;9.16;100.00;98487.13;4994051;28;19925;-71
2023/11/18 00:15:52;;;;;;;;;;;;;;;9.17;100.00;98482.34;4978810;28;20389;-71
2023/11/18 00:18:18;;;;;;;;;;;;;;;9.21;100.00;98484.09;4974549;28;19969;-71
2023/11/18 00:20:44;;;;;;;;;;;;;;;9.31;100.00;98471.66;4973245;28;19980;-71
2023/11/18 00:23:09;;;;;;;;;;;;;;;9.31;100.00;98463.28;4974504;28;19953;-71
2023/11/18 00:25:36;;;;;;;;;;;;;;;9.22;100.00;98455.03;4984704;28;19938;-71
2023/11/18 00:28:01;;;;;;;;;;;;;;;9.18;100.00;98462.50;4992463;28;19918;-71
2023/11/18 00:30:28;;;;;;;;;;;;;;;9.16;100.00;98472.38;4982275;28;19925;-71
2023/11/18 00:32:53;;;;;;;;;;;;;;;9.13;100.00;98466.31;4974366;28;19921;-71
2023/11/18 00:35:18;;;;;;;;;;;;;;;9.15;100.00;98457.63;4978233;28;20393;-71
2023/11/18 00:37:44;;;;;;;;;;;;;;;9.09;100.00;98471.00;4993656;28;19929;-71
2023/11/18 00:40:09;;;;;;;;;;;;;;;9.02;100.00;98462.38;4992814;28;20390;-71
2023/11/18 00:42:34;;;;;;;;;;;;;;;8.98;100.00;98470.63;4992223;28;19946;-71
2023/11/18 00:45:00;;;;;;;;;;;;;;;8.97;100.00;98468.19;4988687;28;19922;-71
2023/11/18 00:47:25;;;;;;;;;;;;;;;8.86;100.00;98479.00;4991611;28;20016;-71
2023/11/18 00:49:52;;;;;;;;;;;;;;;8.82;100.00;98483.66;4992146;28;20301;-70
2023/11/18 00:52:18;;;;;;;;;;;;;;;8.79;100.00;98474.00;4985713;28;20405;-71
2023/11/18 00:54:43;;;;;;;;;;;;;;;8.80;100.00;98475.63;4992541;28;19918;-71
2023/11/18 00:57:09;;;;;;;;;;;;;;;8.75;100.00;98475.84;4992016;28;20369;-71
2023/11/18 00:59:34;;;;;;;;;;;;;;;8.79;100.00;98476.78;4993262;28;19925;-71
2023/11/18 01:01:59;;;;;;;;;;;;;;;8.81;100.00;98463.31;4993089;28;20380;-71
2023/11/18 01:04:25;;;;;;;;;;;;;;;8.86;100.00;98481.78;4988014;28;19918;-71
2023/11/18 01:06:51;;;;;;;;;;;;;;;8.85;100.00;98485.72;5004905;28;19922;-71
2023/11/18 01:09:16;;;;;;;;;;;;;;;8.77;100.00;98484.69;4992262;28;20356;-71
2023/11/18 01:11:42;;;;;;;;;;;;;;;8.72;100.00;98482.13;4991525;28;20448;-71
2023/11/18 01:14:07;;;;;;;;;;;;;;;8.70;100.00;98501.19;4988276;28;19918;-71
2023/11/18 01:16:34;;;;;;;;;;;;;;;8.64;100.00;98492.22;4973649;28;20305;-71
2023/11/18 01:18:59;;;;;;;;;;;;;;;8.63;100.00;98495.34;4972146;28;20401;-71
2023/11/18 01:21:24;;;;;;;;;;;;;;;8.59;100.00;98498.00;4971646;28;19929;-71
2023/11/18 01:23:50;;;;;;;;;;;;;;;8.53;100.00;98503.00;4986762;28;19918;-72
2023/11/18 01:26:15;;;;;;;;;;;;;;;8.49;100.00;98502.03;4991963;28;19921;-71
2023/11/18 01:28:45;;;;;;;;;;;;;;;8.40;100.00;98492.94;4992822;28;19921;-71
2023/11/18 01:31:10;;;;;;;;;;;;;;;8.35;100.00;98482.03;4991295;28;20352;-71
2023/11/18 01:33:45;;;;;;;;;;;;;;;8.26;100.00;98482.94;4992792;28;19964;-71
2023/11/18 01:36:10;;;;;;;;;;;;;;;8.21;100.00;98479.56;4985323;28;19918;-70
2023/11/18 01:38:37;;;;;;;;;;;;;;;8.18;100.00;98486.63;4991318;28;19918;-71
2023/11/18 01:41:04;;;;;;;;;;;;;;;8.08;100.00;98487.03;4992693;28;19973;-70
2023/11/18 01:43:31;;;;;;;;;;;;;;;8.05;100.00;98501.66;4992581;28;19914;-70
2023/11/18 01:45:58;;;;;;;;;;;;;;;7.96;100.00;98497.00;4992414;28;19921;-70
2023/11/18 01:48:26;;;;;;;;;;;;;;;7.92;100.00;98501.59;4973164;28;19926;-71
2023/11/18 01:50:52;;;;;;;;;;;;;;;7.85;100.00;98515.28;4973561;28;19960;-71
2023/11/18 01:53:18;;;;;;;;;;;;;;;7.79;100.00;98508.28;4985643;28;19950;-70
2023/11/18 01:55:44;;;;;;;;;;;;;;;7.72;100.00;98500.47;4972085;28;20423;-71
2023/11/18 01:58:10;;;;;;;;;;;;;;;7.66;100.00;98494.28;4978550;28;19949;-70
2023/11/18 02:00:38;;;;;;;;;;;;;;;7.64;100.00;98499.38;4992395;28;19921;-71
2023/11/18 02:03:05;;;;;;;;;;;;;;;7.59;100.00;98499.56;4991101;28;19913;-70
2023/11/18 02:05:32;;;;;;;;;;;;;;;7.61;100.00;98499.25;4990615;28;20194;-70
2023/11/18 02:07:59;;;;;;;;;;;;;;;7.55;100.00;98484.72;4991518;28;19925;-71
2023/11/18 02:10:25;;;;;;;;;;;;;;;7.52;100.00;98493.75;4974249;28;19918;-71
2023/11/18 02:12:57;;;;;;;;;;;;;;;7.48;100.00;98507.50;4992199;28;20308;-70
2023/11/18 02:15:25;;;;;;;;;;;;;;;7.44;100.00;98496.22;4991303;28;19913;-70
2023/11/18 02:17:53;;;;;;;;;;;;;;;7.37;100.00;98492.38;4990895;28;19926;-71
2023/11/18 02:20:20;;;;;;;;;;;;;;;7.37;100.00;98493.19;4990983;28;19913;-70
2023/11/18 02:22:46;;;;;;;;;;;;;;;7.33;100.00;98502.53;4991508;28;19918;-70
2023/11/18 02:25:18;;;;;;;;;;;;;;;7.30;100.00;98492.91;4996207;28;19920;-71
2023/11/18 02:27:45;;;;;;;;;;;;;;;7.24;100.00;98489.50;4996257;28;19914;-71
2023/11/18 02:30:12;;;;;;;;;;;;;;;7.19;100.00;98494.44;4996036;28;20001;-70
2023/11/18 02:32:56;;;;;;;;;;;;;;;7.10;100.00;98506.41;4983516;28;20014;-71
2023/11/18 02:35:22;;;;;;;;;;;;;;;7.05;100.00;98503.84;4985974;28;19918;-71
2023/11/18 02:37:49;;;;;;;;;;;;;;;7.00;100.00;98499.28;4995974;28;20373;-70
2023/11/18 02:40:35;;;;;;;;;;;;;;;6.99;100.00;98510.72;4995969;28;20025;-71
2023/11/18 02:43:01;;;;;;;;;;;;;;;6.94;100.00;98520.09;4995416;28;20304;-70
2023/11/18 02:45:27;;;;;;;;;;;;;;;6.92;100.00;98527.94;4994421;28;19922;-71
2023/11/18 02:47:57;;;;;;;;;;;;;;;6.90;100.00;98529.44;4982735;28;19922;-70
2023/11/18 02:50:22;;;;;;;;;;;;;;;6.88;100.00;98544.47;4979877;28;19918;-71
2023/11/18 02:52:48;;;;;;;;;;;;;;;6.90;100.00;98538.56;4994392;28;19914;-71
2023/11/18 02:55:13;;;;;;;;;;;;;;;6.93;100.00;98534.31;4995641;28;19914;-71
2023/11/18 02:57:39;;;;;;;;;;;;;;;6.90;100.00;98535.00;4994271;28;19953;-71
2023/11/18 03:00:05;;;;;;;;;;;;;;;6.92;100.00;98532.69;4993999;28;20004;-71
2023/11/18 03:02:30;;;;;;;;;;;;;;;6.87;100.00;98534.47;4986900;28;19926;-70
2023/11/18 03:04:59;;;;;;;;;;;;;;;6.86;100.00;98541.19;4994524;28;20316;-72
2023/11/18 03:07:26;;;;;;;;;;;;;;;6.83;100.00;98532.72;4995435;28;20004;-71
2023/11/18 03:09:52;;;;;;;;;;;;;;;6.82;100.00;98543.03;4995422;28;19921;-72
2023/11/18 03:12:17;;;;;;;;;;;;;;;6.77;100.00;98554.34;4995146;28;20404;-70
2023/11/18 03:14:43;;;;;;;;;;;;;;;6.72;100.00;98548.94;4987992;28;20022;-71
2023/11/18 03:17:09;;;;;;;;;;;;;;;6.73;100.00;98550.56;4975917;28;19914;-70
2023/11/18 03:19:35;;;;;;;;;;;;;;;6.71;100.00;98566.75;4976432;28;20017;-71
2023/11/18 03:22:01;;;;;;;;;;;;;;;6.65;100.00;98554.22;4993778;28;19968;-71
2023/11/18 03:24:28;;;;;;;;;;;;;;;6.64;100.00;98574.81;4995135;28;19914;-71
2023/11/18 03:26:54;;;;;;;;;;;;;;;6.63;100.00;98570.38;4995185;28;19964;-71
2023/11/18 03:29:19;;;;;;;;;;;;;;;6.67;100.00;98561.03;4994980;28;20274;-71
2023/11/18 03:31:48;;;;;;;;;;;;;;;6.64;100.00;98564.50;4993770;28;19976;-71
2023/11/18 03:34:13;;;;;;;;;;;;;;;6.63;100.00;98578.72;4993481;28;20017;-71
2023/11/18 03:36:38;;;;;;;;;;;;;;;6.65;100.00;98573.66;4984066;28;19960;-71
2023/11/18 03:39:04;;;;;;;;;;;;;;;6.65;100.00;98568.09;4975421;28;19928;-71
2023/11/18 03:41:29;;;;;;;;;;;;;;;6.60;100.00;98574.66;4975381;28;20245;-71
2023/11/18 03:43:55;;;;;;;;;;;;;;;6.64;100.00;98580.38;4973900;28;19976;-71
2023/11/18 03:46:20;;;;;;;;;;;;;;;6.56;100.00;98580.03;5001165;28;20234;-71
2023/11/18 03:48:46;;;;;;;;;;;;;;;6.55;100.00;98575.63;4994754;28;19920;-71
2023/11/18 03:51:11;;;;;;;;;;;;;;;6.59;100.00;98567.47;4993359;28;20013;-71
2023/11/18 03:53:36;;;;;;;;;;;;;;;6.57;100.00;98573.34;4994570;28;20005;-70
2023/11/18 03:56:04;;;;;;;;;;;;;;;6.54;100.00;98571.22;4978310;28;20008;-71
2023/11/18 03:58:32;;;;;;;;;;;;;;;6.62;99.71;98577.06;4973810;28;19918;-71
2023/11/18 04:00:58;;;;;;;;;;;;;;;6.62;99.96;98577.06;4978610;28;19933;-72
2023/11/18 04:03:23;;;;;;;;;;;;;;;6.63;96.92;98578.72;4993359;28;19918;-71
2023/11/18 04:05:48;;;;;;;;;;;;;;;6.58;97.18;98574.97;4993194;28;19976;-71
2023/11/18 04:08:14;;;;;;;;;;;;;;;6.59;97.38;98573.81;4994425;28;19936;-71
2023/11/18 04:10:39;;;;;;;;;;;;;;;6.52;97.73;98581.03;4992994;28;20427;-71
2023/11/18 04:13:04;;;;;;;;;;;;;;;6.50;96.47;98577.78;4986416;28;19921;-71
2023/11/18 04:15:30;;;;;;;;;;;;;;;6.48;95.95;98583.66;4994178;28;20384;-71
2023/11/18 04:17:55;;;;;;;;;;;;;;;6.45;94.37;98576.78;4994093;28;19918;-71
2023/11/18 04:20:20;;;;;;;;;;;;;;;6.44;94.84;98586.25;4993103;28;19996;-71
2023/11/18 04:22:46;;;;;;;;;;;;;;;6.43;94.67;98589.38;4994147;28;19957;-71
2023/11/18 04:25:11;;;;;;;;;;;;;;;6.41;95.77;98597.25;4993636;28;19921;-71
2023/11/18 04:27:37;;;;;;;;;;;;;;;6.37;96.17;98607.34;4994044;28;20205;-71
2023/11/18 04:30:03;;;;;;;;;;;;;;;6.40;92.00;98596.41;4988713;28;19940;-71
2023/11/18 04:32:30;;;;;;;;;;;;;;;6.36;92.24;98597.38;4974440;28;19914;-71
2023/11/18 04:34:56;;;;;;;;;;;;;;;6.30;92.89;98596.75;4984174;28;20001;-71
2023/11/18 04:37:21;;;;;;;;;;;;;;;6.28;91.48;98597.09;4992438;28;20005;-70
2023/11/18 04:39:46;;;;;;;;;;;;;;;6.27;91.46;98587.09;4993620;28;20368;-70
2023/11/18 04:42:12;;;;;;;;;;;;;;;6.23;90.65;98585.31;4977552;28;19918;-70
2023/11/18 04:44:38;;;;;;;;;;;;;;;6.20;89.16;98588.72;4973330;28;19926;-70
2023/11/18 04:47:03;;;;;;;;;;;;;;;6.19;89.32;98593.50;4992729;28;19969;-70
2023/11/18 04:49:29;;;;;;;;;;;;;;;6.09;90.20;98602.94;4992344;28;19922;-71
2023/11/18 04:51:54;;;;;;;;;;;;;;;6.08;91.46;98617.16;4974825;28;20407;-70
2023/11/18 04:54:20;;;;;;;;;;;;;;;6.08;90.84;98617.16;4974095;28;19914;-71
2023/11/18 04:56:46;;;;;;;;;;;;;;;6.04;91.18;98620.59;4972694;28;19914;-71
2023/11/18 04:59:11;;;;;;;;;;;;;;;6.00;91.47;98621.53;4973944;28;19937;-71
2023/11/18 05:01:37;;;;;;;;;;;;;;;5.97;90.85;98628.56;4982728;28;20289;-71
2023/11/18 05:04:03;;;;;;;;;;;;;;;5.94;91.73;98634.75;4992445;28;19918;-71
2023/11/18 05:06:28;;;;;;;;;;;;;;;5.93;89.62;98630.34;4992950;28;20016;-71
2023/11/18 05:08:54;;;;;;;;;;;;;;;5.89;90.88;98629.34;4993097;28;19917;-68
2023/11/18 05:11:20;;;;;;;;;;;;;;;5.86;90.72;98632.78;4993090;28;19949;-68
2023/11/18 05:13:45;;;;;;;;;;;;;;;5.92;91.28;98630.66;4992000;28;20407;-71
2023/11/18 05:16:10;;;;;;;;;;;;;;;5.87;92.09;98634.41;4989192;28;19914;-71
2023/11/18 05:18:36;;;;;;;;;;;;;;;5.86;91.06;98633.63;4980393;28;19948;-71
2023/11/18 05:21:02;;;;;;;;;;;;;;;5.86;92.21;98630.00;4992893;28;19914;-71
2023/11/18 05:23:29;;;;;;;;;;;;;;;5.85;90.83;98628.38;4992830;28;19925;-71
2023/11/18 05:25:55;;;;;;;;;;;;;;;5.82;90.62;98626.25;4991421;28;19924;-71
2023/11/18 05:28:21;;;;;;;;;;;;;;;5.81;90.18;98624.63;4991658;28;20023;-71
2023/11/18 05:30:47;;;;;;;;;;;;;;;5.81;86.47;98624.63;4991567;28;19961;-71
2023/11/18 05:33:17;;;;;;;;;;;;;;;5.79;86.11;98618.56;4987021;28;19924;-68
2023/11/18 05:35:48;;;;;;;;;;;;;;;5.71;86.54;98629.34;4977693;28;19925;-71
2023/11/18 05:38:16;;;;;;;;;;;;;;;5.69;86.81;98628.00;4992685;28;19918;-71
2023/11/18 05:40:43;;;;;;;;;;;;;;;5.68;86.56;98632.75;4992787;28;19921;-71
2023/11/18 05:43:15;;;;;;;;;;;;;;;5.66;85.43;98637.78;4989869;28;19924;-68
2023/11/18 05:46:12;;;;;;;;;;;;;;;5.66;84.65;98646.13;4990297;28;19928;-71
2023/11/18 05:48:26;;;;;;;;;;;;;;;5.64;85.73;98644.81;4989420;28;19936;-71
2023/11/18 05:50:51;;;;;;;;;;;;;;;5.63;84.08;98652.31;4978930;28;19918;-70
2023/11/18 05:53:17;;;;;;;;;;;;;;;5.60;85.39;98664.88;4973240;28;19914;-70
2023/11/18 05:55:42;;;;;;;;;;;;;;;5.59;84.79;98656.88;4973134;28;20393;-70
2023/11/18 05:58:08;;;;;;;;;;;;;;;5.56;84.37;98652.78;4971694;28;19945;-71
2023/11/18 06:00:34;;;;;;;;;;;;;;;5.55;85.32;98647.56;4974900;28;19925;-70
2023/11/18 06:03:00;;;;;;;;;;;;;;;5.50;86.93;98644.94;4990190;28;19925;-70
2023/11/18 06:05:29;;;;;;;;;;;;;;;5.55;84.72;98672.53;4987949;28;20337;-70
2023/11/18 06:07:54;;;;;;;;;;;;;;;5.49;86.77;98699.63;4986685;28;19929;-71
2023/11/18 06:10:20;;;;;;;;;;;;;;;5.45;87.53;98704.97;4989447;28;20196;-71
2023/11/18 06:12:46;;;;;;;;;;;;;;;5.49;85.84;98713.47;4989309;28;20393;-71
2023/11/18 06:15:14;;;;;;;;;;;;;;;5.52;83.29;98712.00;4988493;28;20327;-69
2023/11/18 06:17:39;;;;;;;;;;;;;;;5.54;81.95;98715.28;4983282;28;19926;-69
2023/11/18 06:20:06;;;;;;;;;;;;;;;5.52;80.94;98717.56;4986715;28;19980;-71
2023/11/18 06:22:31;;;;;;;;;;;;;;;5.49;81.37;98705.16;4988068;28;20312;-70
2023/11/18 06:24:57;;;;;;;;;;;;;;;5.52;81.18;98709.22;4981520;28;19928;-69
2023/11/18 06:27:24;;;;;;;;;;;;;;;5.49;81.28;98707.94;4988244;28;19917;-70
2023/11/18 06:29:50;;;;;;;;;;;;;;;5.48;80.94;98720.13;4989341;28;20396;-71
2023/11/18 06:32:15;;;;;;;;;;;;;;;5.47;81.19;98727.66;4990739;28;19925;-70
2023/11/18 06:34:41;;;;;;;;;;;;;;;5.49;81.72;98713.47;4990703;28;19913;-72
2023/11/18 06:37:07;;;;;;;;;;;;;;;5.47;78.65;98707.41;4991993;28;19917;-72
2023/11/18 06:39:34;;;;;;;;;;;;;;;5.45;79.02;98702.19;4990966;28;20335;-70
2023/11/18 06:42:01;;;;;;;;;;;;;;;5.47;79.39;98722.13;4975270;28;19922;-71
2023/11/18 06:44:26;;;;;;;;;;;;;;;5.45;78.77;98721.63;4989159;28;19929;-70
2023/11/18 06:46:51;;;;;;;;;;;;;;;5.46;79.54;98717.72;4984814;28;19922;-71
2023/11/18 06:49:17;;;;;;;;;;;;;;;5.52;77.96;98723.94;4990014;28;20043;-69
2023/11/18 06:51:42;;;;;;;;;;;;;;;5.53;78.21;98719.19;4993062;28;19925;-69
2023/11/18 06:54:13;;;;;;;;;;;;;;;5.53;78.75;98710.88;4991927;28;19921;-68
2023/11/18 06:56:42;;;;;;;;;;;;;;;5.54;77.78;98732.75;4985958;28;19918;-69
2023/11/18 06:59:07;;;;;;;;;;;;;;;5.55;77.21;98728.00;4985566;28;19929;-69
2023/11/18 07:01:36;;;;;;;;;;;;;;;5.52;79.05;98723.09;4990859;28;20380;-69
2023/11/18 07:04:02;;;;;;;;;;;;;;;5.55;77.44;98714.13;4991925;28;19921;-69
2023/11/18 07:06:27;;;;;;;;;;;;;;;5.54;78.13;98726.38;4990959;28;20312;-68
2023/11/18 07:08:54;;;;;;;;;;;;;;;5.60;76.82;98728.69;4991669;28;19929;-70
2023/11/18 07:11:23;;;;;;;;;;;;;;;5.55;78.72;98726.06;4991346;28;19917;-68
2023/11/18 07:13:56;;;;;;;;;;;;;;;5.58;76.45;98713.50;4991827;28;20060;-72
2023/11/18 07:16:22;;;;;;;;;;;;;;;5.66;77.24;98711.91;4994588;28;19924;-69
2023/11/18 07:18:47;;;;;;;;;;;;;;;5.64;78.68;98706.66;4994713;28;20332;-69
2023/11/18 07:21:14;;;;;;;;;;;;;;;5.70;77.23;98712.88;4994565;28;19917;-70
2023/11/18 07:23:39;;;;;;;;;;;;;;;5.73;76.23;98698.38;4995082;28;19914;-72
2023/11/18 07:26:04;;;;;;;;;;;;;;;5.77;75.55;98691.06;4990133;28;20443;-70
2023/11/18 07:28:31;;;;;;;;;;;;;;;5.86;75.63;98702.16;4993808;28;19918;-71
2023/11/18 07:30:57;;;;;;;;;;;;;;;5.86;74.92;98710.50;4993833;28;19918;-70
2023/11/18 07:33:23;;;;;;;;;;;;;;;5.89;72.38;98715.41;4990477;28;19960;-70
2023/11/18 07:35:49;;;;;;;;;;;;;;;5.96;74.22;98712.97;4990925;28;19949;-69
2023/11/18 07:38:15;;;;;;;;;;;;;;;5.92;75.25;98706.44;4982116;28;20316;-69
2023/11/18 07:40:42;;;;;;;;;;;;;;;5.97;71.53;98697.97;4994780;28;19922;-69
2023/11/18 07:43:10;;;;;;;;;;;;;;;5.98;71.68;98680.16;4992492;28;20277;-69
2023/11/18 07:45:39;;;;;;;;;;;;;;;6.02;72.39;98697.03;4989206;28;20328;-67
2023/11/18 07:48:08;;;;;;;;;;;;;;;6.05;68.60;98688.03;4973729;28;20377;-70
2023/11/18 07:50:34;;;;;;;;;;;;;;;6.06;72.38;98698.00;4990698;28;19941;-70
2023/11/18 07:52:59;;;;;;;;;;;;;;;6.08;71.38;98686.59;4993399;28;19968;-70
2023/11/18 07:55:24;;;;;;;;;;;;;;;6.04;71.94;98681.69;4993928;28;19977;-71
2023/11/18 07:57:50;;;;;;;;;;;;;;;6.04;70.98;98680.84;4988677;28;19921;-72
2023/11/18 08:00:15;;;;;;;;;;;;;;;6.01;71.44;98684.25;4989796;28;19928;-69
2023/11/18 08:02:40;;;;;;;;;;;;;;;6.02;72.33;98683.94;4990308;28;20389;-71
2023/11/18 08:05:15;;;;;;;;;;;;;;;6.02;71.84;98672.84;4988731;28;19925;-75
2023/11/18 08:07:40;;;;;;;;;;;;;;;6.04;72.50;98678.91;4991137;28;19918;-71
2023/11/18 08:10:06;;;;;;;;;;;;;;;6.03;73.10;98665.34;4989077;28;19917;-73
2023/11/18 08:12:32;;;;;;;;;;;;;;;6.11;70.71;98678.44;4976314;28;19914;-72
2023/11/18 08:15:00;;;;;;;;;;;;;;;6.14;71.19;98680.53;4975608;28;19926;-74
2023/11/18 08:17:25;;;;;;;;;;;;;;;6.12;68.67;98666.16;5000742;28;19925;-74
2023/11/18 08:19:52;;;;;;;;;;;;;;;6.11;69.08;98674.81;4990960;28;19918;-73
2023/11/18 08:22:18;;;;;;;;;;;;;;;6.12;67.85;98668.94;4992344;28;20323;-76
2023/11/18 08:24:44;;;;;;;;;;;;;;;6.13;70.22;98680.84;4985740;28;19926;-72
2023/11/18 08:27:09;;;;;;;;;;;;;;;6.14;69.71;98686.09;4986833;28;19918;-73
2023/11/18 08:29:35;;;;;;;;;;;;;;;6.19;70.27;98679.56;4988923;28;19926;-70
2023/11/18 08:32:00;;;;;;;;;;;;;;;6.25;68.61;98675.47;4987234;28;19917;-73
2023/11/18 08:34:30;;;;;;;;;;;;;;;6.32;71.20;98666.66;4984758;28;21370;-71
2023/11/18 08:36:55;;;;;;;;;;;;;;;6.39;68.97;98655.06;4982325;28;20016;-74
2023/11/18 08:39:20;;;;;;;;;;;;;;;6.44;67.71;98679.91;4983470;28;19940;-74
2023/11/18 08:41:46;;;;;;;;;;;;;;;6.45;66.39;98645.44;4990700;28;19917;-78
2023/11/18 08:44:12;;;;;;;;;;;;;;;6.52;67.24;98686.59;4991280;28;19926;-74
2023/11/18 08:46:38;;;;;;;;;;;;;;;6.52;66.14;98681.06;4988795;28;20020;-77
2023/11/18 08:49:10;;;;;;;;;;;;;;;6.52;65.26;98693.00;4990838;28;20004;-68
2023/11/18 08:51:36;;;;;;;;;;;;;;;6.53;65.30;98685.47;4991164;28;19921;-69
2023/11/18 08:54:16;;;;;;;;;;;;;;;6.51;64.74;98687.75;4991566;28;19918;-68
2023/11/18 08:56:42;;;;;;;;;;;;;;;6.51;64.68;98705.22;4993270;28;20048;-67
2023/11/18 08:59:08;;;;;;;;;;;;;;;6.50;65.44;98711.94;4991483;28;20403;-70
2023/11/18 09:01:34;;;;;;;;;;;;;;;6.52;66.48;98708.84;4990279;28;20412;-68
2023/11/18 09:04:01;;;;;;;;;;;;;;;6.50;65.83;98705.56;4980745;28;19918;-69
2023/11/18 09:06:28;;;;;;;;;;;;;;;6.53;64.81;98704.91;5005133;28;19918;-68
2023/11/18 09:08:53;;;;;;;;;;;;;;;6.53;64.79;98693.78;4980371;28;20429;-67
2023/11/18 09:11:22;;;;;;;;;;;;;;;6.54;66.22;98696.25;4972984;28;20017;-67
2023/11/18 09:13:49;;;;;;;;;;;;;;;6.60;65.36;98708.84;4972807;28;19914;-68
2023/11/18 09:16:15;;;;;;;;;;;;;;;6.60;64.72;98675.47;4971998;28;19960;-68
2023/11/18 09:18:43;;;;;;;;;;;;;;;6.61;65.11;98673.53;4991412;28;19961;-68
2023/11/18 09:21:14;;;;;;;;;;;;;;;6.59;65.64;98675.84;4991796;28;19994;-69
2023/11/18 09:23:40;;;;;;;;;;;;;;;6.50;65.27;98670.25;4984699;28;19922;-71
2023/11/18 09:26:07;;;;;;;;;;;;;;;6.56;67.20;98682.84;4987505;28;20024;-67
2023/11/18 09:28:34;;;;;;;;;;;;;;;6.52;64.12;98670.78;4985602;28;19933;-70
2023/11/18 09:31:02;;;;;;;;;;;;;;;6.46;66.31;98680.41;4983362;28;19929;-70
2023/11/18 09:33:28;;;;;;;;;;;;;;;6.47;65.03;98679.25;4987840;28;19924;-71
2023/11/18 09:36:00;;;;;;;;;;;;;;;6.48;63.19;98705.88;4983508;28;19922;-71
2023/11/18 09:38:29;;;;;;;;;;;;;;;6.45;66.66;98693.47;4983000;28;19953;-71
2023/11/18 09:40:55;;;;;;;;;;;;;;;6.46;64.45;98695.13;4983670;28;20400;-68
2023/11/18 09:43:22;;;;;;;;;;;;;;;6.46;63.23;98666.50;4984783;28;19933;-70
2023/11/18 09:45:49;;;;;;;;;;;;;;;6.51;63.18;98660.78;4983291;28;19996;-69
2023/11/18 09:48:17;;;;;;;;;;;;;;;6.49;64.01;98676.97;4986131;28;20063;-71
2023/11/18 09:50:47;;;;;;;;;;;;;;;6.46;63.47;98661.78;4982914;28;19918;-68
2023/11/18 09:53:12;;;;;;;;;;;;;;;6.43;63.71;98659.63;4986421;28;19921;-69
2023/11/18 09:55:47;;;;;;;;;;;;;;;6.45;64.56;98682.34;4976311;28;19981;-69
2023/11/18 09:58:15;;;;;;;;;;;;;;;6.40;63.47;98670.59;4980083;28;19925;-68
2023/11/18 10:00:44;;;;;;;;;;;;;;;6.47;65.29;98673.69;4984627;28;20384;-70
2023/11/18 10:03:12;;;;;;;;;;;;;;;6.53;65.83;98672.41;5002389;28;20414;-68
2023/11/18 10:05:40;;;;;;;;;;;;;;;6.54;65.43;98674.03;4983133;28;19928;-68
2023/11/18 10:08:05;;;;;;;;;;;;;;;6.48;64.30;98658.66;4985138;28;19933;-68
2023/11/18 10:10:36;;;;;;;;;;;;;;;6.54;62.80;98651.81;4983766;28;19914;-68
2023/11/18 10:13:04;;;;;;;;;;;;;;;6.56;65.10;98643.94;4985458;28;19917;-68
2023/11/18 10:15:31;;;;;;;;;;;;;;;6.60;64.42;98656.03;4990459;28;20345;-68
2023/11/18 10:18:09;;;;;;;;;;;;;;;6.57;63.71;98656.69;4987558;28;19920;-68
2023/11/18 10:20:46;;;;;;;;;;;;;;;6.56;63.77;98671.75;4987508;28;19976;-68
2023/11/18 10:23:21;;;;;;;;;;;;;;;6.60;64.97;98658.81;4986645;28;20345;-67
2023/11/18 10:25:52;;;;;;;;;;;;;;;6.65;64.53;98654.25;4983628;28;20411;-68
2023/11/18 10:28:24;;;;;;;;;;;;;;;6.69;63.38;98646.88;4985175;28;19926;-68
2023/11/18 10:30:50;;;;;;;;;;;;;;;6.79;65.73;98648.50;4981488;28;19928;-69
2023/11/18 10:33:16;;;;;;;;;;;;;;;6.71;63.05;98655.69;4985574;28;19949;-68
2023/11/18 10:35:51;;;;;;;;;;;;;;;6.76;65.47;98651.94;4988412;28;20410;-68
2023/11/18 10:38:16;;;;;;;;;;;;;;;6.70;65.07;98659.63;4986699;28;19925;-68
2023/11/18 10:40:43;;;;;;;;;;;;;;;6.72;64.08;98640.66;4976119;28;19925;-68
2023/11/18 10:43:09;;;;;;;;;;;;;;;6.65;64.46;98645.91;4983759;28;20377;-69
2023/11/18 10:45:38;;;;;;;;;;;;;;;6.56;64.25;98648.69;4986654;28;19932;-67
2023/11/18 10:48:07;;;;;;;;;;;;;;;6.59;65.16;98654.41;4994765;28;19925;-68
2023/11/18 10:50:32;;;;;;;;;;;;;;;6.62;65.61;98643.78;4993082;28;20318;-69
2023/11/18 10:53:11;;;;;;;;;;;;;;;6.56;63.89;98665.34;4996500;28;19925;-69
2023/11/18 10:55:40;;;;;;;;;;;;;;;6.58;63.65;98652.78;4994816;28;20316;-70
2023/11/18 10:58:07;;;;;;;;;;;;;;;6.60;63.81;98658.81;4993402;28;20004;-70
2023/11/18 11:00:53;;;;;;;;;;;;;;;6.62;63.49;98664.06;4993651;28;20456;-68
2023/11/18 11:03:18;;;;;;;;;;;;;;;6.57;63.67;98651.13;4993629;28;20366;-69
2023/11/18 11:05:44;;;;;;;;;;;;;;;6.55;62.69;98642.31;4992678;28;19917;-73
2023/11/18 11:08:13;;;;;;;;;;;;;;;6.59;63.20;98650.81;4988238;28;19922;-68
2023/11/18 11:10:48;;;;;;;;;;;;;;;6.59;63.08;98668.28;4992768;28;19926;-70
2023/11/18 11:13:17;;;;;;;;;;;;;;;6.58;62.09;98644.44;4991267;28;20015;-68
2023/11/18 11:15:49;;;;;;;;;;;;;;;6.56;62.40;98643.94;4988752;28;19917;-68
2023/11/18 11:18:22;;;;;;;;;;;;;;;6.59;63.38;98653.59;4992795;28;19918;-69
2023/11/18 11:20:57;;;;;;;;;;;;;;;6.63;63.13;98648.19;4983375;28;19918;-71
2023/11/18 11:23:43;;;;;;;;;;;;;;;6.57;62.53;98675.31;4992509;28;19929;-70
2023/11/18 11:26:08;;;;;;;;;;;;;;;6.56;61.79;98655.06;4991622;28;20416;-67
2023/11/18 11:28:43;;;;;;;;;;;;;;;6.57;61.96;98658.66;4990910;28;19968;-70
2023/11/18 11:31:15;;;;;;;;;;;;;;;6.55;62.07;98647.88;4983662;28;19964;-71
2023/11/18 11:33:51;;;;;;;;;;;;;;;6.55;61.90;98659.00;4995064;28;20005;-71
2023/11/18 11:36:22;;;;;;;;;;;;;;;6.58;62.36;98658.31;4993471;28;19961;-71
2023/11/18 11:38:48;;;;;;;;;;;;;;;6.51;63.16;98658.00;4992072;28;19965;-71
2023/11/18 11:41:19;;;;;;;;;;;;;;;6.51;62.35;98649.66;4995185;28;20393;-71
2023/11/18 11:43:47;;;;;;;;;;;;;;;6.50;63.11;98639.69;4988415;28;20386;-72
2023/11/18 11:46:13;;;;;;;;;;;;;;;6.53;61.85;98652.94;4983777;28;19925;-72
2023/11/18 11:48:42;;;;;;;;;;;;;;;6.54;63.08;98657.34;4980570;28;19926;-71
2023/11/18 11:51:14;;;;;;;;;;;;;;;6.55;61.12;98639.53;4992131;28;20423;-71
2023/11/18 11:53:45;;;;;;;;;;;;;;;6.52;61.43;98637.44;4986885;28;20372;-71
2023/11/18 11:56:13;;;;;;;;;;;;;;;6.55;62.22;98627.59;4983722;28;19961;-71
2023/11/18 11:58:43;;;;;;;;;;;;;;;6.54;61.83;98632.34;4989976;28;19930;-73
2023/11/18 12:01:33;;;;;;;;;;;;;;;6.58;62.22;98633.31;4989356;28;19917;-72
2023/11/18 12:04:06;;;;;;;;;;;;;;;6.65;61.93;98626.47;4982478;28;19918;-70
2023/11/18 12:06:32;;;;;;;;;;;;;;;6.54;61.21;98634.31;4993597;28;19918;-69
2023/11/18 12:08:57;;;;;;;;;;;;;;;6.51;61.36;98607.97;4993257;28;19976;-67
2023/11/18 12:11:22;;;;;;;;;;;;;;;6.51;63.13;98623.84;4992532;28;19917;-69
2023/11/18 12:14:12;;;;;;;;;;;;;;;6.54;61.82;98631.53;4989848;28;19914;-76
2023/11/18 12:17:01;;;;;;;;;;;;;;;6.57;62.70;98636.41;4985449;28;19921;-76
2023/11/18 12:19:44;;;;;;;;;;;;;;;6.52;61.83;98664.38;4981605;28;19968;-72
2023/11/18 12:22:12;;;;;;;;;;;;;;;6.50;62.99;98639.69;4990662;28;19929;-70
2023/11/18 12:24:39;;;;;;;;;;;;;;;6.49;62.38;98642.81;4979043;28;20379;-71
2023/11/18 12:27:10;;;;;;;;;;;;;;;6.51;62.42;98635.75;4990568;28;19914;-70
2023/11/18 12:29:41;;;;;;;;;;;;;;;6.54;61.82;98635.13;4985495;28;20816;-69
2023/11/18 12:32:12;;;;;;;;;;;;;;;6.56;62.63;98663.41;4981354;28;20412;-71
2023/11/18 12:34:53;;;;;;;;;;;;;;;6.57;62.74;98665.03;4982584;28;19962;-71
2023/11/18 12:37:19;;;;;;;;;;;;;;;6.59;61.64;98646.06;4976686;28;19964;-70
2023/11/18 12:40:04;;;;;;;;;;;;;;;6.60;61.40;98636.59;4993166;28;19921;-74
2023/11/18 12:42:44;;;;;;;;;;;;;;;6.62;62.83;98635.44;4991215;28;19918;-71
2023/11/18 12:45:28;;;;;;;;;;;;;;;6.62;60.82;98633.47;4991392;28;20393;-71
2023/11/18 12:47:55;;;;;;;;;;;;;;;6.63;62.37;98637.06;4991281;28;20305;-71
2023/11/18 12:50:24;;;;;;;;;;;;;;;6.65;62.22;98643.13;4992647;28;19920;-72
2023/11/18 12:52:53;;;;;;;;;;;;;;;6.64;61.65;98636.75;4987704;28;19917;-68
2023/11/18 12:55:19;;;;;;;;;;;;;;;6.66;60.58;98620.56;4986353;28;19937;-73